Airfield :
LOGIN :

Register | Disclaimer

   EN    FR    IT 

 










Legend :    VFR   Marginal VFR   IFR   Intensive IFR   Very Intensive IFR
Visi :
Ceiling :
>= 8 km
>= 3000ft
5 to 8 km
1000 to 3000 ft
1500m to 5 km
500 to 1000 ft
800 to 1500m
200 to 500 ft
< 800m
< 200 ft
Symbols :   Thunderstorms  Fog  Heavy snow  Heavy precipitations  Wind > 20 kt
SIGMETs :     Misc.  Thunderstorms  Icing  Turbulence  Mountain Waves  Volcanic Ashes






- Airport Elevation : 231 ft
- IATA code : WTN


EGXW - RAF Waddington

CURRENT METAR :
  • 041220Z 22018KT 9999 BKN025 BKN250 18/12 Q1012 NOSIG RMK BLU BLU

EXPIRED METARs :
  • 041150Z 23016KT 9999 SCT025 BKN250 18/12 Q1012 TEMPO SCT024 RMK BLU TEMPO WHT
  • 041120Z 23019KT 9999 SCT025 BKN250 17/12 Q1012 TEMPO SCT022 RMK BLU TEMPO WHT
  • 041050Z 22019KT 9999 SCT022 BKN250 18/12 Q1012 TEMPO FEW022 RMK WHT TEMPO BLU
  • 041020Z 22016KT 9999 FEW018 BKN220 17/12 Q1013 TEMPO SCT018 RMK BLU TEMPO WHT
  • 040950Z 22019KT 9999 FEW017 BKN018 BKN220 16/12 Q1013 TEMPO FEW018 RMK WHT TEMPO BLU

TAF TAF EGXW
Valid from the 04 at 12:00 until the 05 at 06:00 UTC


041036Z 0412/0506 21012KT 9999 FEW008 SCT025
TEMPO 0412/0420 22016G26KT
PROB40
TEMPO 0412/0503 SCT018
PROB30
TEMPO 0419/0502 6000 RA BKN008
PROB30
TEMPO 0502/0506 21017G27KT
BECMG 0505/0506 BKN008



MET'MAP, your aeronautical weather chart ! - Copyright ORBIFLY December 2007 - Disclaimer

ORBIFLY MET'MAP TEAM :

Programming & Development : Alexandra Zaïnal
Original concept : Baudouin d'Aumeries
Technical & hardware support : Manuel Goepfert
Assistance : Marc-Olivier Méhu




SOURCES & CREDITS :

   NOAA